sensor_id;sensor_type;location;lat;lon;timestamp;temperature;humidity
16976;DHT22;8604;48.148;-1.786;2023-03-31T00:01:41;12.00;99.90
16976;DHT22;8604;48.148;-1.786;2023-03-31T00:04:11;12.00;99.90
16976;DHT22;8604;48.148;-1.786;2023-03-31T00:06:41;12.00;99.90
16976;DHT22;8604;48.148;-1.786;2023-03-31T00:09:11;12.00;99.90
16976;DHT22;8604;48.148;-1.786;2023-03-31T00:11:41;12.00;99.90
16976;DHT22;8604;48.148;-1.786;2023-03-31T00:14:10;12.00;99.90
16976;DHT22;8604;48.148;-1.786;2023-03-31T00:16:39;12.00;99.90
16976;DHT22;8604;48.148;-1.786;2023-03-31T00:19:08;12.00;99.90
16976;DHT22;8604;48.148;-1.786;2023-03-31T00:21:46;12.00;99.90
16976;DHT22;8604;48.148;-1.786;2023-03-31T00:24:15;12.00;99.90
16976;DHT22;8604;48.148;-1.786;2023-03-31T00:26:44;11.90;99.90
16976;DHT22;8604;48.148;-1.786;2023-03-31T00:29:12;12.00;99.90
16976;DHT22;8604;48.148;-1.786;2023-03-31T00:31:41;12.00;99.90
16976;DHT22;8604;48.148;-1.786;2023-03-31T00:34:10;12.00;99.90
16976;DHT22;8604;48.148;-1.786;2023-03-31T00:36:38;12.00;99.90
16976;DHT22;8604;48.148;-1.786;2023-03-31T00:39:17;12.00;99.90
16976;DHT22;8604;48.148;-1.786;2023-03-31T00:41:45;12.00;99.90
16976;DHT22;8604;48.148;-1.786;2023-03-31T00:44:15;11.90;99.90
16976;DHT22;8604;48.148;-1.786;2023-03-31T00:46:51;12.00;99.90
16976;DHT22;8604;48.148;-1.786;2023-03-31T00:49:25;12.00;99.90
16976;DHT22;8604;48.148;-1.786;2023-03-31T00:52:00;12.00;99.90
16976;DHT22;8604;48.148;-1.786;2023-03-31T00:54:32;11.90;99.90
16976;DHT22;8604;48.148;-1.786;2023-03-31T00:57:02;11.90;99.90
16976;DHT22;8604;48.148;-1.786;2023-03-31T00:59:37;11.90;99.90
16976;DHT22;8604;48.148;-1.786;2023-03-31T01:02:07;11.90;99.90
16976;DHT22;8604;48.148;-1.786;2023-03-31T01:04:45;11.90;99.90
16976;DHT22;8604;48.148;-1.786;2023-03-31T01:07:20;12.00;99.90
16976;DHT22;8604;48.148;-1.786;2023-03-31T01:09:57;12.00;99.90
16976;DHT22;8604;48.148;-1.786;2023-03-31T01:12:26;11.90;99.90
16976;DHT22;8604;48.148;-1.786;2023-03-31T01:14:55;11.90;99.90
16976;DHT22;8604;48.148;-1.786;2023-03-31T01:17:23;11.90;99.90
16976;DHT22;8604;48.148;-1.786;2023-03-31T01:20:04;11.80;99.90
16976;DHT22;8604;48.148;-1.786;2023-03-31T01:23:14;11.80;99.90
16976;DHT22;8604;48.148;-1.786;2023-03-31T01:26:22;11.80;99.90
16976;DHT22;8604;48.148;-1.786;2023-03-31T01:28:58;11.80;99.90
16976;DHT22;8604;48.148;-1.786;2023-03-31T01:31:57;11.80;99.90
16976;DHT22;8604;48.148;-1.786;2023-03-31T01:35:04;11.80;99.90
16976;DHT22;8604;48.148;-1.786;2023-03-31T01:38:12;11.80;99.90
16976;DHT22;8604;48.148;-1.786;2023-03-31T01:43:44;11.80;99.90
16976;DHT22;8604;48.148;-1.786;2023-03-31T01:46:22;11.70;99.90
16976;DHT22;8604;48.148;-1.786;2023-03-31T01:49:00;11.80;99.90
16976;DHT22;8604;48.148;-1.786;2023-03-31T01:51:34;11.70;99.90
16976;DHT22;8604;48.148;-1.786;2023-03-31T01:54:11;11.70;99.90
16976;DHT22;8604;48.148;-1.786;2023-03-31T01:56:46;11.70;99.90
16976;DHT22;8604;48.148;-1.786;2023-03-31T01:59:20;11.70;99.90
16976;DHT22;8604;48.148;-1.786;2023-03-31T02:01:52;11.70;99.90
16976;DHT22;8604;48.148;-1.786;2023-03-31T02:04:25;11.60;99.90
16976;DHT22;8604;48.148;-1.786;2023-03-31T02:06:57;11.60;99.90
16976;DHT22;8604;48.148;-1.786;2023-03-31T02:09:29;11.50;99.90
16976;DHT22;8604;48.148;-1.786;2023-03-31T02:12:04;11.50;99.90
16976;DHT22;8604;48.148;-1.786;2023-03-31T02:14:36;11.50;99.90
16976;DHT22;8604;48.148;-1.786;2023-03-31T02:17:07;11.50;99.90
16976;DHT22;8604;48.148;-1.786;2023-03-31T02:19:42;11.60;99.90
16976;DHT22;8604;48.148;-1.786;2023-03-31T02:22:12;11.50;99.90
16976;DHT22;8604;48.148;-1.786;2023-03-31T02:24:42;11.60;99.90
16976;DHT22;8604;48.148;-1.786;2023-03-31T02:27:16;11.60;99.90
16976;DHT22;8604;48.148;-1.786;2023-03-31T02:29:46;11.60;99.90
16976;DHT22;8604;48.148;-1.786;2023-03-31T02:32:20;11.60;99.90
16976;DHT22;8604;48.148;-1.786;2023-03-31T02:34:52;11.60;99.90
16976;DHT22;8604;48.148;-1.786;2023-03-31T02:37:21;11.60;99.90
16976;DHT22;8604;48.148;-1.786;2023-03-31T02:39:52;11.60;99.90
16976;DHT22;8604;48.148;-1.786;2023-03-31T02:42:23;11.60;99.90
16976;DHT22;8604;48.148;-1.786;2023-03-31T02:44:52;11.60;99.90
16976;DHT22;8604;48.148;-1.786;2023-03-31T02:47:21;11.50;99.90
16976;DHT22;8604;48.148;-1.786;2023-03-31T02:49:52;11.60;99.90
16976;DHT22;8604;48.148;-1.786;2023-03-31T02:52:40;11.50;99.90
16976;DHT22;8604;48.148;-1.786;2023-03-31T02:55:18;11.50;99.90
16976;DHT22;8604;48.148;-1.786;2023-03-31T02:58:22;11.50;99.90
16976;DHT22;8604;48.148;-1.786;2023-03-31T03:01:04;11.50;99.90
16976;DHT22;8604;48.148;-1.786;2023-03-31T03:03:42;11.40;99.90
16976;DHT22;8604;48.148;-1.786;2023-03-31T03:06:25;11.40;99.90
16976;DHT22;8604;48.148;-1.786;2023-03-31T03:09:22;11.40;99.90
16976;DHT22;8604;48.148;-1.786;2023-03-31T03:12:05;11.40;99.90
16976;DHT22;8604;48.148;-1.786;2023-03-31T03:14:41;11.40;99.90
16976;DHT22;8604;48.148;-1.786;2023-03-31T03:17:12;11.40;99.90
16976;DHT22;8604;48.148;-1.786;2023-03-31T03:19:42;11.40;99.90
16976;DHT22;8604;48.148;-1.786;2023-03-31T03:22:10;11.40;99.90
16976;DHT22;8604;48.148;-1.786;2023-03-31T03:24:39;11.40;99.90
16976;DHT22;8604;48.148;-1.786;2023-03-31T03:27:08;11.40;99.90
16976;DHT22;8604;48.148;-1.786;2023-03-31T03:29:38;11.50;99.90
16976;DHT22;8604;48.148;-1.786;2023-03-31T03:32:08;11.40;99.90
16976;DHT22;8604;48.148;-1.786;2023-03-31T03:34:37;11.40;99.90
16976;DHT22;8604;48.148;-1.786;2023-03-31T03:37:05;11.50;99.90
16976;DHT22;8604;48.148;-1.786;2023-03-31T03:39:33;11.40;99.90
16976;DHT22;8604;48.148;-1.786;2023-03-31T03:42:02;11.50;99.90
16976;DHT22;8604;48.148;-1.786;2023-03-31T03:44:31;11.50;99.90
16976;DHT22;8604;48.148;-1.786;2023-03-31T03:47:01;11.50;99.90
16976;DHT22;8604;48.148;-1.786;2023-03-31T03:49:30;11.50;99.90
16976;DHT22;8604;48.148;-1.786;2023-03-31T03:51:58;11.50;99.90
16976;DHT22;8604;48.148;-1.786;2023-03-31T03:54:27;11.50;99.90
16976;DHT22;8604;48.148;-1.786;2023-03-31T03:56:55;11.60;99.90
16976;DHT22;8604;48.148;-1.786;2023-03-31T03:59:24;11.60;99.90
16976;DHT22;8604;48.148;-1.786;2023-03-31T04:01:52;11.60;99.90
16976;DHT22;8604;48.148;-1.786;2023-03-31T04:04:22;11.60;99.90
16976;DHT22;8604;48.148;-1.786;2023-03-31T04:06:50;11.60;99.90
16976;DHT22;8604;48.148;-1.786;2023-03-31T04:09:19;11.50;99.90
16976;DHT22;8604;48.148;-1.786;2023-03-31T04:11:47;11.50;99.90
16976;DHT22;8604;48.148;-1.786;2023-03-31T04:14:16;11.40;99.90
16976;DHT22;8604;48.148;-1.786;2023-03-31T04:16:44;11.40;99.90
16976;DHT22;8604;48.148;-1.786;2023-03-31T04:19:14;11.30;99.90
16976;DHT22;8604;48.148;-1.786;2023-03-31T04:21:46;11.30;99.90
16976;DHT22;8604;48.148;-1.786;2023-03-31T04:24:16;11.30;99.90
16976;DHT22;8604;48.148;-1.786;2023-03-31T04:26:48;11.30;99.90
16976;DHT22;8604;48.148;-1.786;2023-03-31T04:29:17;11.20;99.90
16976;DHT22;8604;48.148;-1.786;2023-03-31T04:31:48;11.20;99.90
16976;DHT22;8604;48.148;-1.786;2023-03-31T04:34:19;11.10;99.90
16976;DHT22;8604;48.148;-1.786;2023-03-31T04:36:54;11.00;99.90
16976;DHT22;8604;48.148;-1.786;2023-03-31T04:39:22;11.00;99.90
16976;DHT22;8604;48.148;-1.786;2023-03-31T04:41:52;11.00;99.90
16976;DHT22;8604;48.148;-1.786;2023-03-31T04:44:21;10.90;99.90
16976;DHT22;8604;48.148;-1.786;2023-03-31T04:46:49;10.90;99.90
16976;DHT22;8604;48.148;-1.786;2023-03-31T04:49:18;10.80;99.90
16976;DHT22;8604;48.148;-1.786;2023-03-31T04:51:46;10.80;99.90
16976;DHT22;8604;48.148;-1.786;2023-03-31T04:54:16;10.70;99.90
16976;DHT22;8604;48.148;-1.786;2023-03-31T04:56:45;10.70;99.90
16976;DHT22;8604;48.148;-1.786;2023-03-31T04:59:14;10.70;99.90
16976;DHT22;8604;48.148;-1.786;2023-03-31T05:01:42;10.70;99.90
16976;DHT22;8604;48.148;-1.786;2023-03-31T05:04:12;10.70;99.90
16976;DHT22;8604;48.148;-1.786;2023-03-31T05:06:40;10.70;99.90
16976;DHT22;8604;48.148;-1.786;2023-03-31T05:09:09;10.70;99.90
16976;DHT22;8604;48.148;-1.786;2023-03-31T05:11:38;10.70;99.90
16976;DHT22;8604;48.148;-1.786;2023-03-31T05:14:10;10.70;99.90
16976;DHT22;8604;48.148;-1.786;2023-03-31T05:16:38;10.70;99.90
16976;DHT22;8604;48.148;-1.786;2023-03-31T05:19:11;10.70;99.90
16976;DHT22;8604;48.148;-1.786;2023-03-31T05:21:39;10.70;99.90
16976;DHT22;8604;48.148;-1.786;2023-03-31T05:24:09;10.70;99.90
16976;DHT22;8604;48.148;-1.786;2023-03-31T05:26:40;10.70;99.90
16976;DHT22;8604;48.148;-1.786;2023-03-31T05:29:13;10.60;99.90
16976;DHT22;8604;48.148;-1.786;2023-03-31T05:31:42;10.70;99.90
16976;DHT22;8604;48.148;-1.786;2023-03-31T05:34:11;10.60;99.90
16976;DHT22;8604;48.148;-1.786;2023-03-31T05:36:40;10.70;99.90
16976;DHT22;8604;48.148;-1.786;2023-03-31T05:39:09;10.60;99.90
16976;DHT22;8604;48.148;-1.786;2023-03-31T05:41:40;10.60;99.90
16976;DHT22;8604;48.148;-1.786;2023-03-31T05:44:24;10.70;99.90
16976;DHT22;8604;48.148;-1.786;2023-03-31T20:52:27;10.60;99.90
16976;DHT22;8604;48.148;-1.786;2023-03-31T21:31:46;10.70;99.90
16976;DHT22;8604;48.148;-1.786;2023-03-31T21:34:15;10.70;99.90
16976;DHT22;8604;48.148;-1.786;2023-03-31T21:36:43;10.60;99.90
16976;DHT22;8604;48.148;-1.786;2023-03-31T21:39:11;10.60;99.90
16976;DHT22;8604;48.148;-1.786;2023-03-31T21:41:40;10.60;99.90
16976;DHT22;8604;48.148;-1.786;2023-03-31T21:44:09;10.60;99.90
16976;DHT22;8604;48.148;-1.786;2023-03-31T21:46:37;10.60;99.90
16976;DHT22;8604;48.148;-1.786;2023-03-31T21:49:08;10.60;99.90
16976;DHT22;8604;48.148;-1.786;2023-03-31T21:51:37;10.50;99.90
16976;DHT22;8604;48.148;-1.786;2023-03-31T21:54:06;10.60;99.90
16976;DHT22;8604;48.148;-1.786;2023-03-31T21:56:34;10.60;99.90
16976;DHT22;8604;48.148;-1.786;2023-03-31T21:59:03;10.60;99.90
16976;DHT22;8604;48.148;-1.786;2023-03-31T22:01:32;10.60;99.90
16976;DHT22;8604;48.148;-1.786;2023-03-31T22:04:00;10.50;99.90
16976;DHT22;8604;48.148;-1.786;2023-03-31T22:06:30;10.50;99.90
16976;DHT22;8604;48.148;-1.786;2023-03-31T22:09:00;10.50;99.90
16976;DHT22;8604;48.148;-1.786;2023-03-31T22:11:28;10.50;99.90
16976;DHT22;8604;48.148;-1.786;2023-03-31T22:13:57;10.40;99.90
16976;DHT22;8604;48.148;-1.786;2023-03-31T22:16:27;10.50;99.90
16976;DHT22;8604;48.148;-1.786;2023-03-31T22:18:56;10.40;99.90
16976;DHT22;8604;48.148;-1.786;2023-03-31T22:21:40;10.50;99.90
16976;DHT22;8604;48.148;-1.786;2023-03-31T22:24:10;10.50;99.90
16976;DHT22;8604;48.148;-1.786;2023-03-31T22:26:39;10.40;99.90
16976;DHT22;8604;48.148;-1.786;2023-03-31T22:29:11;10.50;99.90
16976;DHT22;8604;48.148;-1.786;2023-03-31T22:31:39;10.50;99.90
16976;DHT22;8604;48.148;-1.786;2023-03-31T22:34:08;10.50;99.90
16976;DHT22;8604;48.148;-1.786;2023-03-31T22:36:36;10.50;99.90
16976;DHT22;8604;48.148;-1.786;2023-03-31T22:39:06;10.50;99.90
16976;DHT22;8604;48.148;-1.786;2023-03-31T22:41:36;10.50;99.90
16976;DHT22;8604;48.148;-1.786;2023-03-31T22:44:04;10.50;99.90
16976;DHT22;8604;48.148;-1.786;2023-03-31T22:46:33;10.40;99.90
16976;DHT22;8604;48.148;-1.786;2023-03-31T22:49:01;10.40;99.90
16976;DHT22;8604;48.148;-1.786;2023-03-31T22:51:30;10.40;99.90
16976;DHT22;8604;48.148;-1.786;2023-03-31T22:54:00;10.40;99.90
16976;DHT22;8604;48.148;-1.786;2023-03-31T22:56:31;10.40;99.90
16976;DHT22;8604;48.148;-1.786;2023-03-31T22:59:00;10.40;99.90
16976;DHT22;8604;48.148;-1.786;2023-03-31T23:01:28;10.40;99.90
16976;DHT22;8604;48.148;-1.786;2023-03-31T23:03:57;10.40;99.90
16976;DHT22;8604;48.148;-1.786;2023-03-31T23:06:27;10.30;99.90
16976;DHT22;8604;48.148;-1.786;2023-03-31T23:08:56;10.30;99.90
16976;DHT22;8604;48.148;-1.786;2023-03-31T23:11:27;10.30;99.90
16976;DHT22;8604;48.148;-1.786;2023-03-31T23:14:02;10.30;99.90
16976;DHT22;8604;48.148;-1.786;2023-03-31T23:16:31;10.30;99.90
16976;DHT22;8604;48.148;-1.786;2023-03-31T23:18:59;10.20;99.90
16976;DHT22;8604;48.148;-1.786;2023-03-31T23:21:28;10.20;99.90
16976;DHT22;8604;48.148;-1.786;2023-03-31T23:23:59;10.20;99.90
16976;DHT22;8604;48.148;-1.786;2023-03-31T23:26:30;10.20;99.90
16976;DHT22;8604;48.148;-1.786;2023-03-31T23:29:01;10.20;99.90
16976;DHT22;8604;48.148;-1.786;2023-03-31T23:31:31;10.20;99.90
16976;DHT22;8604;48.148;-1.786;2023-03-31T23:33:59;10.30;99.90
16976;DHT22;8604;48.148;-1.786;2023-03-31T23:36:28;10.30;99.90
16976;DHT22;8604;48.148;-1.786;2023-03-31T23:38:57;10.30;99.90
16976;DHT22;8604;48.148;-1.786;2023-03-31T23:41:25;10.30;99.90
16976;DHT22;8604;48.148;-1.786;2023-03-31T23:43:54;10.30;99.90
16976;DHT22;8604;48.148;-1.786;2023-03-31T23:46:25;10.30;99.90
16976;DHT22;8604;48.148;-1.786;2023-03-31T23:48:53;10.20;99.90
16976;DHT22;8604;48.148;-1.786;2023-03-31T23:51:22;10.20;99.90
16976;DHT22;8604;48.148;-1.786;2023-03-31T23:53:51;10.20;99.90
16976;DHT22;8604;48.148;-1.786;2023-03-31T23:56:19;10.20;99.90
16976;DHT22;8604;48.148;-1.786;2023-03-31T23:58:48;10.20;99.90
